メインページ
METAR-TAF:

METAR-TAF

空港 :

出雲空港

出雲, 日本

緯度: 35-25N, 経度: 132-54E, 海抜: 2m

現時点の気象観測

当レポートは38分前の10:00(UTC)に作成
南西の風 6kt
気温 16°C
湿度 82%
気圧 1007 hPa
視程10km以上
高度1500ftの雲はほとんどない
高度3000ftの雲は散在している
高度4000ftの千切れ雲あり

METAR: RJOC 241000Z 22006KT 9999 FEW015 SCT030 BKN040 16/13 Q1007

時間: 19:38 (10:38 UTC)

予報

当レポートは5時間31分前の05:07(UTC)に作成
予報は24日の 06時(UTC)から 25日の 12時(UTC)まで有効
西/南西の風 9kt
視程10km以上
高度500ftの雲はほとんどない
高度1000ftの雲は散在している
高度3000ftの千切れ雲あり
24日の 16時(UTC)から 25日の 00時(UTC)まで一時的に
高度200ftの雲はほとんどない
高度500ftの雲は散在している
高度800ftの千切れ雲あり

TAF: RJOC 240507Z 2406/2512 24009KT 9999 FEW005 SCT010 BKN030 TEMPO 2416/2500 FEW002 SCT005 BKN008

4,000以上の空港の気象観測と天気予報(METAR報とTAF報)

利用可能な観測所は地図上に黄色い丸と赤い丸で示す。

丸の上にカーソルを重ねると観測所名を参照できる。

次にクリックすると気象観測と天気予報を参照できる。

マップの切り替え:黒色「×」印の緑ボタンをクリックして拡大、「-」印の緑ボタンをクリックして縮小、緑色の三角印をクリックして隣りの地図に切り替え


METAR-TAF: